createdAt,value
2022-12-04T00:01:38.112Z,1.73
2022-12-04T00:04:07.529Z,1.69
2022-12-04T00:06:35.615Z,1.87
2022-12-04T00:09:05.552Z,1.59
2022-12-04T00:11:34.024Z,1.64
2022-12-04T00:14:06.955Z,1.80
2022-12-04T00:16:35.707Z,1.59
2022-12-04T00:19:07.310Z,1.55
2022-12-04T00:21:37.361Z,1.71
2022-12-04T00:24:08.008Z,2.02
2022-12-04T00:26:36.047Z,1.72
2022-12-04T00:29:04.364Z,1.83
2022-12-04T00:31:32.583Z,1.87
2022-12-04T00:34:02.144Z,1.85
2022-12-04T00:36:34.200Z,1.69
2022-12-04T00:39:02.245Z,1.93
2022-12-04T00:41:31.518Z,1.63
2022-12-04T00:43:59.852Z,1.68
2022-12-04T00:46:27.975Z,1.71
2022-12-04T00:48:56.072Z,1.54
2022-12-04T00:51:25.325Z,1.67
2022-12-04T00:53:56.732Z,1.60
2022-12-04T00:56:25.984Z,1.57
2022-12-04T00:58:54.091Z,1.65
2022-12-04T01:01:22.747Z,1.63
2022-12-04T01:03:53.448Z,1.62
2022-12-04T01:06:22.149Z,1.50
2022-12-04T01:08:50.718Z,1.49
2022-12-04T01:11:20.642Z,1.66
2022-12-04T01:13:48.825Z,1.50
2022-12-04T01:16:17.867Z,1.60
2022-12-04T01:18:46.049Z,1.45
2022-12-04T01:21:14.116Z,1.62
2022-12-04T01:23:42.173Z,1.64
2022-12-04T01:26:10.187Z,1.60
2022-12-04T01:28:39.522Z,1.68
2022-12-04T01:31:11.282Z,1.56
2022-12-04T01:33:39.524Z,1.51
2022-12-04T01:36:08.794Z,1.64
2022-12-04T01:38:36.801Z,1.59
2022-12-04T01:41:07.509Z,1.69
2022-12-04T01:43:36.650Z,1.59
2022-12-04T01:46:06.651Z,1.67
2022-12-04T01:48:35.741Z,1.63
2022-12-04T01:51:05.881Z,1.58
2022-12-04T01:53:34.639Z,1.54
2022-12-04T01:56:03.714Z,1.61
2022-12-04T01:58:34.290Z,1.56
2022-12-04T02:01:08.159Z,1.54
2022-12-04T02:03:38.774Z,1.55
2022-12-04T02:06:07.426Z,1.60
2022-12-04T02:08:35.987Z,1.64
2022-12-04T02:11:11.308Z,1.59
2022-12-04T02:13:44.201Z,1.61
2022-12-04T02:16:19.504Z,1.76
2022-12-04T02:18:58.386Z,1.80
2022-12-04T02:21:31.375Z,1.80
2022-12-04T02:24:21.818Z,1.82
2022-12-04T02:26:51.471Z,1.67
2022-12-04T02:29:25.223Z,1.78
2022-12-04T02:31:58.199Z,1.73
2022-12-04T02:34:27.988Z,1.82
2022-12-04T02:36:58.654Z,1.68
2022-12-04T02:39:31.291Z,1.65
2022-12-04T02:42:03.392Z,1.82
2022-12-04T02:44:36.673Z,1.72
2022-12-04T02:47:08.154Z,1.72
2022-12-04T02:49:39.404Z,1.75
2022-12-04T02:52:09.650Z,1.59
2022-12-04T02:54:40.193Z,1.53
2022-12-04T02:57:10.857Z,1.77
2022-12-04T02:59:42.540Z,1.78
2022-12-04T03:02:15.919Z,1.68
2022-12-04T03:04:50.579Z,1.66
2022-12-04T03:07:21.224Z,1.85
2022-12-04T03:09:52.243Z,1.84
2022-12-04T03:12:21.419Z,1.88
2022-12-04T03:14:56.221Z,1.85
2022-12-04T03:17:26.498Z,1.68
2022-12-04T03:19:56.137Z,1.72
2022-12-04T03:22:25.241Z,1.72
2022-12-04T03:24:54.334Z,1.84
2022-12-04T03:27:24.928Z,1.98
2022-12-04T03:29:56.144Z,1.74
2022-12-04T03:32:29.710Z,1.72
2022-12-04T03:34:59.610Z,1.87
2022-12-04T03:37:32.890Z,1.82
2022-12-04T03:40:03.434Z,1.71
2022-12-04T03:42:36.858Z,1.80
2022-12-04T03:45:11.773Z,1.70
2022-12-04T03:47:44.768Z,1.81
2022-12-04T03:50:15.065Z,1.63
2022-12-04T03:52:47.180Z,1.73
2022-12-04T03:55:20.412Z,1.73
2022-12-04T03:57:50.336Z,1.79
2022-12-04T04:00:22.539Z,1.73
2022-12-04T04:02:53.335Z,1.71
2022-12-04T04:05:22.333Z,1.73
2022-12-04T04:07:52.142Z,1.71
2022-12-04T04:10:20.923Z,1.72
2022-12-04T04:13:10.486Z,1.79
2022-12-04T04:16:00.628Z,1.90
2022-12-04T04:18:47.312Z,1.79
2022-12-04T04:21:36.364Z,1.76
2022-12-04T04:24:17.818Z,1.77
2022-12-04T04:26:48.260Z,1.84
2022-12-04T04:29:16.367Z,1.90
2022-12-04T04:31:51.345Z,1.81
2022-12-04T04:34:20.771Z,2.03
2022-12-04T04:36:54.707Z,1.99
2022-12-04T04:39:26.359Z,1.98
2022-12-04T04:41:57.596Z,1.94
2022-12-04T04:44:28.901Z,2.03
2022-12-04T04:47:01.129Z,2.17
2022-12-04T04:49:31.963Z,2.21
2022-12-04T04:52:01.089Z,1.82
2022-12-04T04:54:30.805Z,1.90
2022-12-04T04:56:58.951Z,1.95
2022-12-04T04:59:27.056Z,2.01
2022-12-04T05:01:59.364Z,2.09
2022-12-04T05:04:27.550Z,2.01
2022-12-04T05:06:55.567Z,2.10
2022-12-04T05:09:23.621Z,1.87
2022-12-04T05:11:51.624Z,1.88
2022-12-04T05:14:19.650Z,1.98
2022-12-04T05:16:47.625Z,2.00
2022-12-04T05:19:34.385Z,2.10
2022-12-04T05:22:02.466Z,1.89
2022-12-04T05:24:30.501Z,2.06
2022-12-04T05:27:00.820Z,2.07
2022-12-04T05:29:32.908Z,2.17
2022-12-04T05:32:03.874Z,2.00
2022-12-04T05:34:33.365Z,1.90
2022-12-04T05:37:03.731Z,1.95
2022-12-04T05:39:34.794Z,1.95
2022-12-04T05:42:02.942Z,1.92
2022-12-04T05:44:30.997Z,1.93
2022-12-04T05:46:59.080Z,1.86
2022-12-04T05:49:29.569Z,2.03
2022-12-04T05:51:59.136Z,2.06
2022-12-04T05:54:27.304Z,1.91
2022-12-04T05:56:57.427Z,2.05
2022-12-04T05:59:25.532Z,1.89
2022-12-04T06:01:53.751Z,2.06
2022-12-04T06:04:21.836Z,2.08
2022-12-04T06:06:49.849Z,2.24
2022-12-04T06:09:19.238Z,2.11
2022-12-04T06:11:47.484Z,2.19
2022-12-04T06:14:16.506Z,2.23
2022-12-04T06:16:46.096Z,2.83
2022-12-04T06:19:15.356Z,2.63
2022-12-04T06:21:44.310Z,2.19
2022-12-04T06:24:14.120Z,2.03
2022-12-04T06:27:04.131Z,1.96
2022-12-04T06:29:31.690Z,2.12
2022-12-04T06:31:59.828Z,2.06
2022-12-04T06:34:30.121Z,2.00
2022-12-04T06:36:58.147Z,1.94
2022-12-04T06:39:26.209Z,1.99
2022-12-04T06:41:55.625Z,2.30
2022-12-04T06:44:23.643Z,2.42
2022-12-04T06:46:54.660Z,2.14
2022-12-04T06:49:23.024Z,2.32
2022-12-04T06:51:51.309Z,2.21
2022-12-04T06:54:19.344Z,2.20
2022-12-04T06:56:47.432Z,2.46
2022-12-04T06:59:16.895Z,2.36
2022-12-04T07:01:44.973Z,2.18
2022-12-04T07:04:13.128Z,2.07
2022-12-04T07:06:41.207Z,1.97
2022-12-04T07:09:11.145Z,2.12
2022-12-04T07:11:39.899Z,1.98
2022-12-04T07:14:10.410Z,2.13
2022-12-04T07:16:41.904Z,2.06
2022-12-04T07:19:11.094Z,1.99
2022-12-04T07:21:39.150Z,2.17
2022-12-04T07:24:07.492Z,2.07
2022-12-04T07:26:35.551Z,1.99
2022-12-04T07:29:03.662Z,2.08
2022-12-04T07:31:31.772Z,2.17
2022-12-04T07:34:01.222Z,2.23
2022-12-04T07:36:29.273Z,2.20
2022-12-04T07:38:57.486Z,2.26
2022-12-04T07:41:25.689Z,2.25
2022-12-04T07:43:54.715Z,2.20
2022-12-04T07:46:25.101Z,2.11
2022-12-04T07:48:53.518Z,2.11
2022-12-04T07:51:23.610Z,2.18
2022-12-04T07:53:53.205Z,2.10
2022-12-04T07:56:21.929Z,2.14
2022-12-04T07:58:50.001Z,2.14
2022-12-04T08:01:19.016Z,2.21
2022-12-04T08:03:48.932Z,2.19
2022-12-04T08:06:17.659Z,2.08
2022-12-04T08:08:49.901Z,2.17
2022-12-04T08:11:18.952Z,2.11
2022-12-04T08:13:47.012Z,2.23
2022-12-04T08:16:15.716Z,2.11
2022-12-04T08:18:46.828Z,2.11
2022-12-04T08:21:16.576Z,2.17
2022-12-04T08:23:45.166Z,2.18
2022-12-04T08:26:14.593Z,2.23
2022-12-04T08:28:42.756Z,2.18
2022-12-04T08:31:12.685Z,2.17
2022-12-04T08:33:43.902Z,2.18
2022-12-04T08:36:13.067Z,2.26
2022-12-04T08:38:41.531Z,2.27
2022-12-04T08:41:13.334Z,2.31
2022-12-04T08:43:42.774Z,2.34
2022-12-04T08:46:12.027Z,2.40
2022-12-04T08:48:40.227Z,2.23
2022-12-04T08:51:08.941Z,2.30
2022-12-04T08:53:37.536Z,2.49
2022-12-04T08:56:05.837Z,2.61
2022-12-04T08:58:33.941Z,2.48
2022-12-04T09:01:07.036Z,2.37
2022-12-04T09:03:35.647Z,2.58
2022-12-04T09:06:04.885Z,2.67
2022-12-04T09:08:33.688Z,2.56
2022-12-04T09:11:03.683Z,2.48
2022-12-04T09:13:32.240Z,2.44
2022-12-04T09:16:04.595Z,2.53
2022-12-04T09:18:34.257Z,2.46
2022-12-04T09:21:03.266Z,2.36
2022-12-04T09:23:31.320Z,2.54
2022-12-04T09:25:59.482Z,2.63
2022-12-04T09:28:27.638Z,2.47
2022-12-04T09:30:59.801Z,2.87
2022-12-04T09:33:27.937Z,2.44
2022-12-04T09:35:59.365Z,2.60
2022-12-04T09:38:28.317Z,2.47
2022-12-04T09:41:02.441Z,2.73
2022-12-04T09:43:33.341Z,2.36
2022-12-04T09:46:04.141Z,2.45
2022-12-04T09:48:34.237Z,2.60
2022-12-04T09:51:04.443Z,2.61
2022-12-04T09:53:41.474Z,2.43
2022-12-04T09:56:12.567Z,2.34
2022-12-04T09:58:45.930Z,2.42
2022-12-04T10:01:20.193Z,2.43
2022-12-04T10:03:48.447Z,2.67
2022-12-04T10:06:20.417Z,2.52
2022-12-04T10:08:52.220Z,2.58
2022-12-04T10:11:29.200Z,2.55
2022-12-04T10:14:07.059Z,2.39
2022-12-04T10:16:40.293Z,2.60
2022-12-04T10:19:11.797Z,2.47
2022-12-04T10:21:51.324Z,2.52
2022-12-04T10:24:26.737Z,2.67
2022-12-04T10:26:56.192Z,2.49
2022-12-04T10:29:27.398Z,2.59
2022-12-04T10:31:56.563Z,2.33
2022-12-04T10:34:27.721Z,2.48
2022-12-04T10:37:01.409Z,2.62
2022-12-04T10:39:36.630Z,2.58
2022-12-04T10:42:07.434Z,2.47
2022-12-04T10:44:35.485Z,2.40
2022-12-04T10:47:05.308Z,2.22
2022-12-04T10:49:34.497Z,2.24
2022-12-04T10:52:06.504Z,2.34
2022-12-04T10:54:35.558Z,2.35
2022-12-04T10:57:06.733Z,2.28
2022-12-04T10:59:34.829Z,2.58
2022-12-04T11:02:07.292Z,2.60
2022-12-04T11:04:38.051Z,2.76
2022-12-04T11:07:09.242Z,2.61
2022-12-04T11:09:39.555Z,2.63
2022-12-04T11:12:09.453Z,2.64
2022-12-04T11:14:37.657Z,2.73
2022-12-04T11:17:06.884Z,3.14
2022-12-04T11:19:36.276Z,2.60
2022-12-04T11:22:14.682Z,2.60
2022-12-04T11:24:43.376Z,2.49
2022-12-04T11:27:18.348Z,2.80
2022-12-04T11:29:47.285Z,2.71
2022-12-04T11:32:21.391Z,2.90
2022-12-04T11:34:51.874Z,2.59
2022-12-04T11:37:23.737Z,2.75
2022-12-04T11:39:52.311Z,3.18
2022-12-04T11:42:25.028Z,3.34
2022-12-04T11:44:54.475Z,3.67
2022-12-04T11:47:23.492Z,3.78
2022-12-04T11:50:03.512Z,2.87
2022-12-04T11:52:38.964Z,2.88
2022-12-04T11:55:13.246Z,3.63
2022-12-04T11:57:46.487Z,3.92
2022-12-04T12:00:16.211Z,3.02
2022-12-04T12:02:51.421Z,2.84
2022-12-04T12:05:25.294Z,2.81
2022-12-04T12:08:02.750Z,2.65
2022-12-04T12:10:36.889Z,2.61
2022-12-04T12:13:13.968Z,3.04
2022-12-04T12:15:48.434Z,2.99
2022-12-04T12:18:24.760Z,3.09
2022-12-04T12:20:57.686Z,2.88
2022-12-04T12:23:35.839Z,2.67
2022-12-04T12:26:07.030Z,3.21
2022-12-04T12:28:41.837Z,3.69
2022-12-04T12:31:29.092Z,3.47
2022-12-04T12:33:59.709Z,3.51
2022-12-04T12:36:31.554Z,3.74
2022-12-04T12:39:04.289Z,3.82
2022-12-04T12:41:37.079Z,3.65
2022-12-04T12:44:08.298Z,3.96
2022-12-04T12:46:38.404Z,3.94
2022-12-04T12:49:11.557Z,2.96
2022-12-04T12:51:43.200Z,3.88
2022-12-04T12:54:16.834Z,2.81
2022-12-04T12:56:54.711Z,3.57
2022-12-04T12:59:26.249Z,3.75
2022-12-04T13:02:00.741Z,3.86
2022-12-04T13:04:33.443Z,2.95
2022-12-04T13:07:05.934Z,2.83
2022-12-04T13:09:38.191Z,2.97
2022-12-04T13:12:10.043Z,2.95
2022-12-04T13:14:38.102Z,3.57
2022-12-04T13:17:12.416Z,2.96
2022-12-04T13:19:46.165Z,3.07
2022-12-04T13:22:19.516Z,3.99
2022-12-04T13:24:56.352Z,3.79
2022-12-04T13:27:30.733Z,3.92
2022-12-04T13:30:03.747Z,3.47
2022-12-04T13:32:42.172Z,3.67
2022-12-04T13:35:16.208Z,3.66
2022-12-04T13:37:53.330Z,3.41
2022-12-04T13:40:33.544Z,3.78
2022-12-04T13:43:14.989Z,3.70
2022-12-04T13:45:46.008Z,3.60
2022-12-04T13:48:14.232Z,3.63
2022-12-04T13:50:42.501Z,3.65
2022-12-04T13:53:25.495Z,3.77
2022-12-04T13:55:59.947Z,3.47
2022-12-04T13:58:31.381Z,3.59
2022-12-04T14:01:03.717Z,3.56
2022-12-04T14:03:33.915Z,3.76
2022-12-04T14:06:05.292Z,3.42
2022-12-04T14:08:37.683Z,3.86
2022-12-04T14:11:09.514Z,3.90
2022-12-04T14:13:44.369Z,3.85
2022-12-04T14:16:20.907Z,3.55
2022-12-04T14:18:49.890Z,3.69
2022-12-04T14:21:18.013Z,3.20
2022-12-04T14:23:46.118Z,3.33
2022-12-04T14:26:23.189Z,3.40
2022-12-04T14:28:51.515Z,3.21
2022-12-04T14:31:35.069Z,3.16
2022-12-04T14:34:04.934Z,3.18
2022-12-04T14:36:35.963Z,3.27
2022-12-04T14:39:06.316Z,3.53
2022-12-04T14:41:37.856Z,3.65
2022-12-04T14:44:06.498Z,3.62
2022-12-04T14:46:41.141Z,3.50
2022-12-04T14:49:16.653Z,3.80
2022-12-04T14:51:50.774Z,3.86
2022-12-04T14:54:23.439Z,3.48
2022-12-04T14:56:58.994Z,3.49
2022-12-04T14:59:29.652Z,3.47
2022-12-04T15:01:57.774Z,3.38
2022-12-04T15:04:27.401Z,3.53
2022-12-04T15:07:00.199Z,3.25
2022-12-04T15:09:47.168Z,2.92
2022-12-04T15:12:34.729Z,3.24
2022-12-04T15:15:05.194Z,3.29
2022-12-04T15:17:33.209Z,2.93
2022-12-04T15:20:08.649Z,3.57
2022-12-04T15:22:36.883Z,3.49
2022-12-04T15:25:06.054Z,3.68
2022-12-04T15:27:36.451Z,3.36
2022-12-04T15:30:04.972Z,2.71
2022-12-04T15:32:33.518Z,2.70
2022-12-04T15:35:02.903Z,2.91
2022-12-04T15:37:31.820Z,2.73
2022-12-04T15:40:00.309Z,3.39
2022-12-04T15:42:29.703Z,2.84
2022-12-04T15:45:01.016Z,2.75
2022-12-04T15:47:30.556Z,2.87
2022-12-04T15:50:09.365Z,2.61
2022-12-04T15:52:38.415Z,2.46
2022-12-04T15:55:08.414Z,2.45
2022-12-04T15:57:37.970Z,3.40
2022-12-04T16:00:09.644Z,3.39
2022-12-04T16:02:41.350Z,3.27
2022-12-04T16:05:13.458Z,3.45
2022-12-04T16:07:49.484Z,3.50
2022-12-04T16:10:21.334Z,3.07
2022-12-04T16:12:53.148Z,3.01
2022-12-04T16:15:22.704Z,3.29
2022-12-04T16:17:51.489Z,3.44
2022-12-04T16:20:20.073Z,3.48
2022-12-04T16:22:51.964Z,3.48
2022-12-04T16:25:22.439Z,3.02
2022-12-04T16:27:50.598Z,2.95
2022-12-04T16:30:18.771Z,3.21
2022-12-04T16:32:50.279Z,3.32
2022-12-04T16:35:18.397Z,3.30
2022-12-04T16:37:46.573Z,3.66
2022-12-04T16:40:15.598Z,3.26
2022-12-04T16:42:44.273Z,3.61
2022-12-04T16:45:21.458Z,2.98
2022-12-04T16:47:51.091Z,3.07
2022-12-04T16:50:19.200Z,3.04
2022-12-04T16:52:47.241Z,3.35
2022-12-04T16:55:19.881Z,3.23
2022-12-04T16:57:48.208Z,3.04
2022-12-04T17:00:17.364Z,3.33
2022-12-04T17:02:46.292Z,3.23
2022-12-04T17:05:20.060Z,3.17
2022-12-04T17:07:48.490Z,3.39
2022-12-04T17:10:23.284Z,3.24
2022-12-04T17:12:52.662Z,3.14
2022-12-04T17:15:20.711Z,3.04
2022-12-04T17:17:48.699Z,2.92
2022-12-04T17:20:17.384Z,3.35
2022-12-04T17:22:46.828Z,3.13
2022-12-04T17:25:14.959Z,3.00
2022-12-04T17:27:43.534Z,3.36
2022-12-04T17:30:12.372Z,3.32
2022-12-04T17:32:40.391Z,3.36
2022-12-04T17:35:09.544Z,3.32
2022-12-04T17:37:38.443Z,3.14
2022-12-04T17:40:10.393Z,3.17
2022-12-04T17:42:40.320Z,3.26
2022-12-04T17:45:14.716Z,3.31
2022-12-04T17:47:42.824Z,3.34
2022-12-04T17:50:11.330Z,3.38
2022-12-04T17:52:39.712Z,3.20
2022-12-04T17:55:11.025Z,3.07
2022-12-04T17:57:42.708Z,3.03
2022-12-04T18:00:11.155Z,2.98
2022-12-04T18:02:42.577Z,3.12
2022-12-04T18:05:11.728Z,3.17
2022-12-04T18:07:40.091Z,3.54
2022-12-04T18:10:09.884Z,3.39
2022-12-04T18:12:37.944Z,3.15
2022-12-04T18:15:06.506Z,2.98
2022-12-04T18:17:34.625Z,2.82
2022-12-04T18:20:05.310Z,2.82
2022-12-04T18:22:33.847Z,3.01
2022-12-04T18:25:02.462Z,2.96
2022-12-04T18:27:32.213Z,3.00
2022-12-04T18:30:02.716Z,2.90
2022-12-04T18:32:31.169Z,3.08
2022-12-04T18:34:59.374Z,3.58
2022-12-04T18:37:27.367Z,3.28
2022-12-04T18:39:55.940Z,2.77
2022-12-04T18:42:29.171Z,2.95
2022-12-04T18:44:58.932Z,2.99
2022-12-04T18:47:27.296Z,3.39
2022-12-04T18:49:55.881Z,3.04
2022-12-04T18:52:24.506Z,2.93
2022-12-04T18:54:52.644Z,3.35
2022-12-04T18:57:23.317Z,3.64
2022-12-04T18:59:51.579Z,3.30
2022-12-04T19:02:21.097Z,3.38
2022-12-04T19:04:49.316Z,3.32
2022-12-04T19:07:18.703Z,2.73
2022-12-04T19:10:10.446Z,2.98
2022-12-04T19:12:34.945Z,3.38
2022-12-04T19:15:03.213Z,3.26
2022-12-04T19:17:34.425Z,2.89
2022-12-04T19:20:02.726Z,3.07
2022-12-04T19:22:31.097Z,3.24
2022-12-04T19:24:59.495Z,3.17
2022-12-04T19:27:27.772Z,3.54
2022-12-04T19:29:56.197Z,2.92
2022-12-04T19:32:24.939Z,2.86
2022-12-04T19:34:56.988Z,3.07
2022-12-04T19:37:25.035Z,3.23
2022-12-04T19:39:59.657Z,2.98
2022-12-04T19:42:30.337Z,3.40
2022-12-04T19:44:58.564Z,3.00
2022-12-04T19:47:27.038Z,3.10
2022-12-04T19:49:56.759Z,3.02
2022-12-04T19:52:24.988Z,3.12
2022-12-04T19:54:53.110Z,3.37
2022-12-04T19:57:21.487Z,3.53
2022-12-04T19:59:52.391Z,3.60
2022-12-04T20:02:20.600Z,3.54
2022-12-04T20:04:49.218Z,3.25
2022-12-04T20:07:19.193Z,3.00
2022-12-04T20:09:52.572Z,3.28
2022-12-04T20:12:20.919Z,3.06
2022-12-04T20:14:48.981Z,3.06
2022-12-04T20:17:17.080Z,3.33
2022-12-04T20:19:45.269Z,2.98
2022-12-04T20:22:13.285Z,3.41
2022-12-04T20:24:42.976Z,3.20
2022-12-04T20:27:11.018Z,3.43
2022-12-04T20:29:39.201Z,3.33
2022-12-04T20:32:07.271Z,3.13
2022-12-04T20:34:41.773Z,3.35
2022-12-04T20:37:11.595Z,3.81
2022-12-04T20:39:40.338Z,3.82
2022-12-04T20:42:09.813Z,3.68
2022-12-04T20:44:38.160Z,3.94
2022-12-04T20:47:06.333Z,4.00
2022-12-04T20:49:34.445Z,3.72
2022-12-04T20:52:05.973Z,3.89
2022-12-04T20:54:41.067Z,3.72
2022-12-04T20:57:11.615Z,3.33
2022-12-04T20:59:39.837Z,3.44
2022-12-04T21:02:08.289Z,3.36
2022-12-04T21:04:39.788Z,3.39
2022-12-04T21:07:08.953Z,3.76
2022-12-04T21:09:37.112Z,4.06
2022-12-04T21:12:26.390Z,3.72
2022-12-04T21:15:15.794Z,3.94
2022-12-04T21:17:44.180Z,3.51
2022-12-04T21:20:12.882Z,4.11
2022-12-04T21:22:41.100Z,3.52
2022-12-04T21:25:10.220Z,3.89
2022-12-04T21:27:38.311Z,3.43
2022-12-04T21:30:08.859Z,3.93
2022-12-04T21:32:36.986Z,3.64
2022-12-04T21:35:05.461Z,4.08
2022-12-04T21:37:34.432Z,3.43
2022-12-04T21:40:03.788Z,3.64
2022-12-04T21:42:30.954Z,3.61
2022-12-04T21:44:59.390Z,3.69
2022-12-04T21:47:29.119Z,3.73
2022-12-04T21:49:57.849Z,3.88
2022-12-04T21:52:26.794Z,4.13
2022-12-04T21:54:55.509Z,4.10
2022-12-04T21:57:24.317Z,4.13
2022-12-04T22:02:38.023Z,3.73
2022-12-04T22:05:06.796Z,4.09
2022-12-04T22:07:34.968Z,3.85
2022-12-04T22:10:10.176Z,3.81
2022-12-04T22:12:49.428Z,3.89
2022-12-04T22:15:18.056Z,4.31
2022-12-04T22:17:47.706Z,3.58
2022-12-04T22:20:16.058Z,4.04
2022-12-04T22:22:44.131Z,3.91
2022-12-04T22:25:14.234Z,4.00
2022-12-04T22:27:42.477Z,4.33
2022-12-04T22:30:11.335Z,3.74
2022-12-04T22:32:39.531Z,4.10
2022-12-04T22:35:09.463Z,4.08
2022-12-04T22:37:42.687Z,3.78
2022-12-04T22:40:12.901Z,3.84
2022-12-04T22:42:41.050Z,3.93
2022-12-04T22:45:09.402Z,3.82
2022-12-04T22:47:37.472Z,3.77
2022-12-04T22:50:06.419Z,3.83
2022-12-04T22:52:35.872Z,3.88
2022-12-04T22:55:04.026Z,4.07
2022-12-04T22:57:32.097Z,4.41
2022-12-04T23:00:00.179Z,3.61
2022-12-04T23:02:28.247Z,4.30
2022-12-04T23:04:56.507Z,3.91
2022-12-04T23:07:24.622Z,3.49
2022-12-04T23:09:54.254Z,3.76
2022-12-04T23:12:23.616Z,4.33
2022-12-04T23:14:52.183Z,4.28
2022-12-04T23:17:23.101Z,3.85
2022-12-04T23:19:51.265Z,3.92
2022-12-04T23:22:19.455Z,3.94
2022-12-04T23:24:47.624Z,4.37
2022-12-04T23:27:17.034Z,4.25
2022-12-04T23:29:53.102Z,3.70
2022-12-04T23:32:21.713Z,3.94
2022-12-04T23:34:49.810Z,4.37
2022-12-04T23:37:17.922Z,3.76
2022-12-04T23:39:45.974Z,3.86
2022-12-04T23:42:14.062Z,3.59
2022-12-04T23:44:43.507Z,3.71
2022-12-04T23:47:14.061Z,3.57
2022-12-04T23:49:42.217Z,3.39
2022-12-04T23:52:10.304Z,3.43
2022-12-04T23:54:38.452Z,3.53
2022-12-04T23:57:08.933Z,3.62
2022-12-04T23:59:36.999Z,3.62
